createdAt,value
2018-10-16T00:01:51.060Z,30.71
2018-10-16T00:04:27.758Z,30.72
2018-10-16T00:07:03.517Z,30.75
2018-10-16T00:09:39.732Z,30.73
2018-10-16T00:12:15.925Z,30.76
2018-10-16T00:14:52.166Z,30.74
2018-10-16T00:17:28.281Z,30.73
2018-10-16T00:20:04.108Z,30.72
2018-10-16T00:22:40.292Z,30.71
2018-10-16T00:25:19.938Z,30.72
2018-10-16T00:27:56.103Z,30.73
2018-10-16T00:30:32.087Z,30.72
2018-10-16T00:33:08.324Z,30.73
2018-10-16T00:35:44.107Z,30.74
2018-10-16T00:38:20.548Z,30.71
2018-10-16T00:40:56.870Z,30.71
2018-10-16T00:43:32.863Z,30.71
2018-10-16T00:46:09.296Z,30.69
2018-10-16T00:48:45.284Z,30.68
2018-10-16T00:51:21.128Z,30.69
2018-10-16T00:53:56.896Z,30.67
2018-10-16T00:56:32.520Z,30.65
2018-10-16T00:59:08.361Z,30.64
2018-10-16T01:04:10.241Z,30.62
2018-10-16T01:06:45.932Z,30.63
2018-10-16T01:09:22.999Z,30.63
2018-10-16T01:12:00.096Z,30.63
2018-10-16T01:14:36.121Z,30.64
2018-10-16T01:17:14.247Z,30.64
2018-10-16T01:19:55.386Z,30.64
2018-10-16T01:22:31.988Z,30.64
2018-10-16T01:25:10.311Z,30.65
2018-10-16T01:27:47.898Z,30.64
2018-10-16T01:30:24.692Z,30.66
2018-10-16T01:33:01.138Z,30.66
2018-10-16T01:35:37.659Z,30.65
2018-10-16T01:38:14.025Z,30.65
2018-10-16T01:40:50.131Z,30.64
2018-10-16T01:43:26.038Z,30.63
2018-10-16T01:46:02.333Z,30.61
2018-10-16T01:48:38.898Z,30.60
2018-10-16T01:51:15.584Z,30.60
2018-10-16T01:53:51.925Z,30.59
2018-10-16T01:56:27.907Z,30.59
2018-10-16T01:59:03.917Z,30.56
2018-10-16T02:01:40.137Z,30.57
2018-10-16T02:04:16.611Z,30.59
2018-10-16T02:06:52.844Z,30.61
2018-10-16T02:09:29.963Z,30.62
2018-10-16T02:12:06.139Z,30.63
2018-10-16T02:17:22.317Z,30.68
2018-10-16T02:19:58.349Z,30.68
2018-10-16T02:22:34.323Z,30.70
2018-10-16T02:25:12.509Z,30.70
2018-10-16T02:27:51.856Z,30.69
2018-10-16T02:30:27.787Z,30.68
2018-10-16T02:33:04.027Z,30.69
2018-10-16T02:35:40.913Z,30.69
2018-10-16T02:38:17.379Z,30.68
2018-10-16T02:40:53.326Z,30.66
2018-10-16T02:43:29.435Z,30.66
2018-10-16T02:46:05.430Z,30.66
2018-10-16T02:48:42.115Z,30.70
2018-10-16T02:51:18.534Z,30.71
2018-10-16T02:53:55.057Z,30.70
2018-10-16T02:56:31.168Z,30.69
2018-10-16T02:59:07.164Z,30.71
2018-10-16T03:01:44.008Z,30.71
2018-10-16T03:04:20.407Z,30.69
2018-10-16T03:06:56.508Z,30.68
2018-10-16T03:09:32.157Z,30.67
2018-10-16T03:12:08.500Z,30.66
2018-10-16T03:14:44.511Z,30.65
2018-10-16T03:17:20.335Z,30.63
2018-10-16T03:19:56.385Z,30.64
2018-10-16T03:22:32.523Z,30.64
2018-10-16T03:25:09.188Z,30.63
2018-10-16T03:27:45.345Z,30.62
2018-10-16T03:30:21.352Z,30.61
2018-10-16T03:32:57.581Z,30.59
2018-10-16T03:35:33.365Z,30.57
2018-10-16T03:38:09.172Z,30.53
2018-10-16T03:40:45.379Z,30.52
2018-10-16T03:43:23.904Z,30.50
2018-10-16T03:45:59.924Z,30.48
2018-10-16T03:48:36.139Z,30.47
2018-10-16T03:51:12.655Z,30.47
2018-10-16T03:53:49.125Z,30.47
2018-10-16T03:56:25.177Z,30.45
2018-10-16T03:59:02.627Z,30.44
2018-10-16T04:01:38.605Z,30.42
2018-10-16T04:04:14.949Z,30.39
2018-10-16T04:06:51.436Z,30.37
2018-10-16T04:09:27.971Z,30.33
2018-10-16T04:12:04.203Z,30.32
2018-10-16T04:14:40.366Z,30.33
2018-10-16T04:17:16.382Z,30.32
2018-10-16T04:19:52.405Z,30.33
2018-10-16T04:22:28.680Z,30.32
2018-10-16T04:25:05.201Z,30.31
2018-10-16T04:27:41.189Z,30.30
2018-10-16T04:30:17.211Z,30.28
2018-10-16T04:32:53.235Z,30.29
2018-10-16T04:35:29.195Z,30.28
2018-10-16T04:38:05.198Z,30.28
2018-10-16T04:40:42.359Z,30.29
2018-10-16T04:43:18.091Z,30.28
2018-10-16T04:45:54.197Z,30.28
2018-10-16T04:48:30.168Z,30.27
2018-10-16T04:51:06.156Z,30.26
2018-10-16T04:53:42.374Z,30.24
2018-10-16T04:56:18.432Z,30.24
2018-10-16T04:58:55.337Z,30.22
2018-10-16T05:01:32.614Z,30.21
2018-10-16T05:04:08.897Z,30.21
2018-10-16T05:06:45.206Z,30.18
2018-10-16T05:09:22.291Z,30.18
2018-10-16T05:11:58.804Z,30.17
2018-10-16T05:14:35.203Z,30.17
2018-10-16T05:17:11.083Z,30.16
2018-10-16T05:19:47.213Z,30.11
2018-10-16T05:22:23.593Z,30.10
2018-10-16T05:24:59.929Z,30.07
2018-10-16T05:27:36.152Z,30.07
2018-10-16T05:30:39.586Z,29.98
2018-10-16T05:33:15.384Z,30.01
2018-10-16T05:35:51.389Z,30.02
2018-10-16T05:38:28.389Z,30.02
2018-10-16T05:41:04.911Z,30.02
2018-10-16T05:43:40.900Z,30.00
2018-10-16T05:46:17.214Z,29.98
2018-10-16T05:48:53.054Z,29.98
2018-10-16T05:51:29.217Z,29.96
2018-10-16T05:54:05.052Z,29.94
2018-10-16T05:56:41.039Z,29.94
2018-10-16T05:59:17.201Z,29.92
2018-10-16T06:01:53.225Z,29.87
2018-10-16T06:04:29.087Z,29.86
2018-10-16T06:07:05.028Z,29.85
2018-10-16T06:09:41.917Z,29.84
2018-10-16T06:12:18.244Z,29.83
2018-10-16T06:14:54.418Z,29.80
2018-10-16T06:17:30.665Z,29.78
2018-10-16T06:20:06.582Z,29.75
2018-10-16T06:22:43.402Z,29.74
2018-10-16T06:25:19.230Z,29.73
2018-10-16T06:27:55.218Z,29.70
2018-10-16T06:30:31.239Z,29.69
2018-10-16T06:33:07.613Z,29.68
2018-10-16T06:35:43.852Z,29.65
2018-10-16T06:38:20.266Z,29.64
2018-10-16T06:40:56.368Z,29.60
2018-10-16T06:43:32.358Z,29.60
2018-10-16T06:46:08.409Z,29.62
2018-10-16T06:48:44.494Z,29.63
2018-10-16T06:51:20.405Z,29.61
2018-10-16T06:53:56.240Z,29.61
2018-10-16T06:56:32.240Z,29.63
2018-10-16T06:59:08.593Z,29.64
2018-10-16T07:01:44.578Z,29.65
2018-10-16T07:04:20.865Z,29.65
2018-10-16T07:06:56.663Z,29.65
2018-10-16T07:09:33.597Z,29.65
2018-10-16T07:12:10.370Z,29.64
2018-10-16T07:14:46.997Z,29.64
2018-10-16T07:17:22.884Z,29.63
2018-10-16T07:19:59.735Z,29.62
2018-10-16T07:24:12.054Z,29.58
2018-10-16T07:26:48.710Z,29.58
2018-10-16T07:29:24.410Z,29.59
2018-10-16T07:31:59.948Z,29.57
2018-10-16T07:34:36.161Z,29.57
2018-10-16T07:37:12.619Z,29.55
2018-10-16T07:39:48.244Z,29.54
2018-10-16T07:42:24.058Z,29.52
2018-10-16T07:45:00.078Z,29.51
2018-10-16T07:47:36.459Z,29.49
2018-10-16T07:50:14.864Z,29.47
2018-10-16T07:52:51.014Z,29.45
2018-10-16T07:55:27.288Z,29.45
2018-10-16T07:58:03.599Z,29.44
2018-10-16T08:00:39.894Z,29.43
2018-10-16T08:03:16.099Z,29.42
2018-10-16T08:05:52.010Z,29.41
2018-10-16T08:08:28.053Z,29.42
2018-10-16T08:11:04.247Z,29.40
2018-10-16T08:13:40.276Z,29.39
2018-10-16T08:16:16.246Z,29.39
2018-10-16T08:18:52.437Z,29.37
2018-10-16T08:21:28.245Z,29.37
2018-10-16T08:24:04.645Z,29.36
2018-10-16T08:26:40.634Z,29.36
2018-10-16T08:29:16.918Z,29.36
2018-10-16T08:31:53.383Z,29.33
2018-10-16T08:34:29.254Z,29.33
2018-10-16T08:37:05.241Z,29.32
2018-10-16T08:39:45.262Z,29.30
2018-10-16T08:42:39.965Z,29.29
2018-10-16T08:45:29.827Z,29.28
2018-10-16T08:48:19.919Z,29.26
2018-10-16T08:51:09.691Z,29.24
2018-10-16T08:53:46.091Z,29.23
2018-10-16T08:56:55.933Z,29.18
2018-10-16T08:59:32.625Z,29.17
2018-10-16T09:02:08.312Z,29.16
2018-10-16T09:04:44.096Z,29.14
2018-10-16T09:07:20.107Z,29.14
2018-10-16T09:09:56.457Z,29.13
2018-10-16T09:12:32.462Z,29.10
2018-10-16T09:15:09.034Z,29.10
2018-10-16T09:17:45.286Z,29.07
2018-10-16T09:20:21.461Z,29.04
2018-10-16T09:22:57.464Z,29.02
2018-10-16T09:25:33.476Z,29.01
2018-10-16T09:28:09.656Z,28.98
2018-10-16T09:30:46.109Z,28.95
2018-10-16T09:33:22.290Z,28.95
2018-10-16T09:35:58.485Z,28.95
2018-10-16T09:38:34.629Z,28.94
2018-10-16T09:41:10.925Z,28.92
2018-10-16T09:43:46.905Z,28.89
2018-10-16T09:46:22.906Z,28.88
2018-10-16T09:48:58.929Z,28.86
2018-10-16T09:51:35.145Z,28.84
2018-10-16T09:54:11.300Z,28.83
2018-10-16T09:56:47.305Z,28.82
2018-10-16T09:59:23.006Z,28.80
2018-10-16T10:01:59.361Z,28.80
2018-10-16T10:04:35.305Z,28.78
2018-10-16T10:07:11.789Z,28.79
2018-10-16T10:09:48.117Z,28.75
2018-10-16T10:12:24.270Z,28.74
2018-10-16T10:15:00.271Z,28.73
2018-10-16T10:17:36.254Z,28.72
2018-10-16T10:20:12.653Z,28.71
2018-10-16T10:22:48.645Z,28.71
2018-10-16T10:25:24.606Z,28.67
2018-10-16T10:28:01.277Z,28.66
2018-10-16T10:30:37.205Z,28.66
2018-10-16T10:33:13.310Z,28.63
2018-10-16T10:35:49.309Z,28.62
2018-10-16T10:38:25.514Z,28.60
2018-10-16T10:41:01.216Z,28.58
2018-10-16T10:43:37.525Z,28.56
2018-10-16T10:46:13.313Z,28.57
2018-10-16T10:48:49.550Z,28.54
2018-10-16T10:51:26.432Z,28.53
2018-10-16T10:54:02.315Z,28.51
2018-10-16T10:56:38.320Z,28.50
2018-10-16T10:59:14.295Z,28.47
2018-10-16T11:01:50.516Z,28.44
2018-10-16T11:04:26.506Z,28.44
2018-10-16T11:07:03.673Z,28.41
2018-10-16T11:09:40.075Z,28.36
2018-10-16T11:12:16.102Z,28.36
2018-10-16T11:14:52.513Z,28.37
2018-10-16T11:17:28.312Z,28.36
2018-10-16T11:20:04.318Z,28.34
2018-10-16T11:22:40.516Z,28.32
2018-10-16T11:25:16.322Z,28.33
2018-10-16T11:27:52.503Z,28.31
2018-10-16T11:30:28.320Z,28.29
2018-10-16T11:33:04.366Z,28.27
2018-10-16T11:35:41.515Z,28.26
2018-10-16T11:38:17.513Z,28.26
2018-10-16T11:40:53.512Z,28.23
2018-10-16T11:43:29.611Z,28.21
2018-10-16T11:46:05.310Z,28.22
2018-10-16T11:48:41.164Z,28.20
2018-10-16T11:51:17.338Z,28.18
2018-10-16T11:53:53.134Z,28.17
2018-10-16T11:56:28.964Z,28.15
2018-10-16T11:59:04.964Z,28.12
2018-10-16T12:01:40.564Z,28.11
2018-10-16T12:04:16.326Z,28.09
2018-10-16T12:06:52.568Z,28.08
2018-10-16T12:09:28.525Z,28.07
2018-10-16T12:12:04.727Z,28.06
2018-10-16T12:14:40.532Z,28.04
2018-10-16T12:17:20.906Z,28.02
2018-10-16T12:21:03.012Z,28.02
2018-10-16T12:23:39.167Z,28.00
2018-10-16T12:26:15.528Z,27.94
2018-10-16T12:28:51.583Z,27.93
2018-10-16T12:31:27.707Z,27.93
2018-10-16T12:34:03.970Z,27.92
2018-10-16T12:36:40.033Z,27.91
2018-10-16T12:39:16.388Z,27.91
2018-10-16T12:41:52.506Z,27.89
2018-10-16T12:44:28.353Z,27.89
2018-10-16T12:47:04.602Z,27.87
2018-10-16T12:49:40.548Z,27.85
2018-10-16T12:52:16.530Z,27.84
2018-10-16T12:54:52.364Z,27.82
2018-10-16T12:57:28.699Z,27.80
2018-10-16T13:00:05.227Z,27.79
2018-10-16T13:02:41.032Z,27.76
2018-10-16T13:05:17.239Z,27.75
2018-10-16T13:07:53.186Z,27.73
2018-10-16T13:10:29.425Z,27.71
2018-10-16T13:13:05.370Z,27.70
2018-10-16T13:15:41.569Z,27.69
2018-10-16T13:18:17.539Z,27.69
2018-10-16T13:20:53.367Z,27.69
2018-10-16T13:23:29.594Z,27.66
2018-10-16T13:26:06.117Z,27.67
2018-10-16T13:28:42.324Z,27.66
2018-10-16T13:31:18.556Z,27.65
2018-10-16T13:33:54.632Z,27.66
2018-10-16T13:36:30.608Z,27.65
2018-10-16T13:39:07.352Z,27.64
2018-10-16T13:41:43.557Z,27.62
2018-10-16T13:44:19.353Z,27.60
2018-10-16T13:46:55.344Z,27.59
2018-10-16T13:49:31.352Z,27.57
2018-10-16T13:52:07.405Z,27.56
2018-10-16T13:54:43.604Z,27.55
2018-10-16T13:57:19.387Z,27.53
2018-10-16T13:59:55.719Z,27.52
2018-10-16T14:02:31.841Z,27.48
2018-10-16T14:05:08.213Z,27.50
2018-10-16T14:07:44.573Z,27.49
2018-10-16T14:10:20.581Z,27.44
2018-10-16T14:12:58.068Z,27.43
2018-10-16T14:15:34.245Z,27.44
2018-10-16T14:18:10.384Z,27.45
2018-10-16T14:20:46.397Z,27.49
2018-10-16T14:23:22.596Z,27.51
2018-10-16T14:25:58.628Z,27.51
2018-10-16T14:28:34.163Z,27.51
2018-10-16T14:31:10.237Z,27.53
2018-10-16T14:33:46.491Z,27.54
2018-10-16T14:36:23.384Z,27.56
2018-10-16T14:38:59.392Z,27.56
2018-10-16T14:41:35.569Z,27.59
2018-10-16T14:44:11.951Z,27.60
2018-10-16T14:46:48.069Z,27.61
2018-10-16T14:49:24.342Z,27.60
2018-10-16T14:52:00.638Z,27.62
2018-10-16T14:54:36.582Z,27.61
2018-10-16T14:57:12.589Z,27.63
2018-10-16T14:59:48.784Z,27.65
2018-10-16T15:02:25.727Z,27.66
2018-10-16T15:05:02.819Z,27.67
2018-10-16T15:07:39.179Z,27.67
2018-10-16T15:10:15.610Z,27.68
2018-10-16T15:12:51.281Z,27.69
2018-10-16T15:15:27.189Z,27.69
2018-10-16T15:18:03.175Z,27.69
2018-10-16T15:20:39.604Z,27.70
2018-10-16T15:23:15.620Z,27.70
2018-10-16T15:25:51.588Z,27.70
2018-10-16T15:28:27.615Z,27.70
2018-10-16T15:31:03.525Z,27.71
2018-10-16T15:33:39.586Z,27.72
2018-10-16T15:36:15.693Z,27.72
2018-10-16T15:38:51.758Z,27.73
2018-10-16T15:41:27.626Z,27.75
2018-10-16T15:44:03.632Z,27.74
2018-10-16T15:46:41.161Z,27.75
2018-10-16T15:49:17.691Z,27.76
2018-10-16T15:51:54.377Z,27.75
2018-10-16T15:54:30.252Z,27.79
2018-10-16T15:57:06.545Z,27.77
2018-10-16T15:59:42.418Z,27.78
2018-10-16T16:02:18.403Z,27.82
2018-10-16T16:04:54.442Z,27.82
2018-10-16T16:07:30.437Z,27.84
2018-10-16T16:10:06.812Z,27.83
2018-10-16T16:12:43.492Z,27.81
2018-10-16T16:15:20.027Z,27.76
2018-10-16T16:17:56.293Z,27.74
2018-10-16T16:20:32.614Z,27.70
2018-10-16T16:23:08.641Z,27.64
2018-10-16T16:25:45.244Z,27.60
2018-10-16T16:28:21.600Z,27.58
2018-10-16T16:30:57.545Z,27.53
2018-10-16T16:33:33.603Z,27.50
2018-10-16T16:36:09.857Z,27.49
2018-10-16T16:38:46.275Z,27.48
2018-10-16T16:41:22.428Z,27.45
2018-10-16T16:43:58.965Z,27.39
2018-10-16T16:46:35.412Z,27.41
2018-10-16T16:49:11.450Z,27.40
2018-10-16T16:51:47.459Z,27.41
2018-10-16T16:54:23.921Z,27.40
2018-10-16T16:56:59.909Z,27.36
2018-10-16T16:59:36.219Z,27.34
2018-10-16T17:02:12.397Z,27.33
2018-10-16T17:04:48.768Z,27.31
2018-10-16T17:07:25.194Z,27.31
2018-10-16T17:10:01.503Z,27.36
2018-10-16T17:12:38.444Z,27.36
2018-10-16T17:15:17.368Z,27.38
2018-10-16T17:17:53.484Z,27.37
2018-10-16T17:20:29.443Z,27.37
2018-10-16T17:23:06.663Z,27.35
2018-10-16T17:25:43.041Z,27.33
2018-10-16T17:28:19.174Z,27.29
2018-10-16T17:30:55.445Z,27.30
2018-10-16T17:33:31.448Z,27.30
2018-10-16T17:36:07.444Z,27.30
2018-10-16T17:38:43.469Z,27.30
2018-10-16T17:41:19.434Z,27.31
2018-10-16T17:44:53.346Z,27.30
2018-10-16T17:47:30.167Z,27.30
2018-10-16T17:50:06.403Z,27.34
2018-10-16T17:52:42.814Z,27.33
2018-10-16T17:55:19.321Z,27.34
2018-10-16T17:57:55.718Z,27.36
2018-10-16T18:00:32.680Z,27.37
2018-10-16T18:03:09.238Z,27.40
2018-10-16T18:05:45.845Z,27.45
2018-10-16T18:08:22.325Z,27.48
2018-10-16T18:10:58.857Z,27.49
2018-10-16T18:13:34.644Z,27.52
2018-10-16T18:16:11.112Z,27.53
2018-10-16T18:18:47.291Z,27.55
2018-10-16T18:21:23.423Z,27.56
2018-10-16T18:25:49.459Z,27.64
2018-10-16T18:28:25.024Z,27.64
2018-10-16T18:31:00.473Z,27.68
2018-10-16T18:33:36.439Z,27.70
2018-10-16T18:36:12.686Z,27.72
2018-10-16T18:38:48.421Z,27.75
2018-10-16T18:41:24.186Z,27.79
2018-10-16T18:44:00.434Z,27.81
2018-10-16T18:46:36.309Z,27.83
2018-10-16T18:49:12.696Z,27.87
2018-10-16T18:51:48.651Z,27.90
2018-10-16T18:54:24.524Z,27.93
2018-10-16T18:57:00.425Z,27.95
2018-10-16T18:59:36.288Z,27.98
2018-10-16T19:02:12.485Z,28.02
2018-10-16T19:04:48.306Z,28.06
2018-10-16T19:07:24.825Z,28.10
2018-10-16T19:10:00.934Z,28.13
2018-10-16T19:12:37.613Z,28.14
2018-10-16T19:15:16.530Z,28.18
2018-10-16T19:17:53.042Z,28.19
2018-10-16T19:20:28.853Z,28.22
2018-10-16T19:23:05.114Z,28.25
2018-10-16T19:25:41.130Z,28.26
2018-10-16T19:28:17.127Z,28.29
2018-10-16T19:30:53.476Z,28.32
2018-10-16T19:33:29.654Z,28.35
2018-10-16T19:36:05.962Z,28.38
2018-10-16T19:38:42.435Z,28.40
2018-10-16T19:41:18.819Z,28.42
2018-10-16T19:43:54.972Z,28.46
2018-10-16T19:46:31.472Z,28.50
2018-10-16T19:49:08.661Z,28.54
2018-10-16T19:51:45.255Z,28.57
2018-10-16T19:54:21.488Z,28.62
2018-10-16T19:56:57.683Z,28.63
2018-10-16T19:59:34.068Z,28.69
2018-10-16T20:02:11.321Z,28.73
2018-10-16T20:04:47.788Z,28.75
2018-10-16T20:07:23.764Z,28.79
2018-10-16T20:09:59.789Z,28.82
2018-10-16T20:12:36.204Z,28.85
2018-10-16T20:15:14.478Z,28.89
2018-10-16T20:17:50.673Z,28.91
2018-10-16T20:20:27.933Z,28.94
2018-10-16T20:23:04.493Z,28.97
2018-10-16T20:25:41.156Z,29.01
2018-10-16T20:28:17.135Z,29.03
2018-10-16T20:30:53.325Z,29.06
2018-10-16T20:33:29.500Z,29.09
2018-10-16T20:36:05.489Z,29.12
2018-10-16T20:38:41.509Z,29.15
2018-10-16T20:41:17.408Z,29.16
2018-10-16T20:43:53.473Z,29.19
2018-10-16T20:46:29.498Z,29.22
2018-10-16T20:49:06.375Z,29.25
2018-10-16T20:51:42.839Z,29.27
2018-10-16T20:54:19.124Z,29.29
2018-10-16T20:56:55.390Z,29.33
2018-10-16T20:59:31.626Z,29.35
2018-10-16T21:02:07.687Z,29.38
2018-10-16T21:04:43.821Z,29.42
2018-10-16T21:07:19.765Z,29.44
2018-10-16T21:09:55.870Z,29.46
2018-10-16T21:12:32.198Z,29.51
2018-10-16T21:15:09.262Z,29.53
2018-10-16T21:17:45.874Z,29.56
2018-10-16T21:20:22.141Z,29.59
2018-10-16T21:22:57.950Z,29.60
2018-10-16T21:25:34.155Z,29.63
2018-10-16T21:28:11.277Z,29.66
2018-10-16T21:30:47.692Z,29.69
2018-10-16T21:33:23.517Z,29.72
2018-10-16T21:35:59.700Z,29.73
2018-10-16T21:38:35.893Z,29.76
2018-10-16T21:41:11.845Z,29.79
2018-10-16T21:43:48.497Z,29.81
2018-10-16T21:46:24.456Z,29.83
2018-10-16T21:49:00.509Z,29.87
2018-10-16T21:51:36.773Z,29.88
2018-10-16T21:54:12.853Z,29.92
2018-10-16T21:56:48.916Z,29.95
2018-10-16T21:59:25.683Z,29.98
2018-10-16T22:02:05.808Z,30.01
2018-10-16T22:04:43.003Z,30.03
2018-10-16T22:07:19.004Z,30.06
2018-10-16T22:09:54.954Z,30.08
2018-10-16T22:12:31.001Z,30.07
2018-10-16T22:15:07.253Z,30.10
2018-10-16T22:17:43.076Z,30.11
2018-10-16T22:20:19.065Z,30.11
2018-10-16T22:22:55.937Z,30.11
2018-10-16T22:25:32.440Z,30.10
2018-10-16T22:28:08.860Z,30.10
2018-10-16T22:30:45.252Z,30.11
2018-10-16T22:33:21.379Z,30.11
2018-10-16T22:35:57.270Z,30.11
2018-10-16T22:38:33.384Z,30.12
2018-10-16T22:41:09.896Z,30.12
2018-10-16T22:43:46.863Z,30.12
2018-10-16T22:46:23.031Z,30.12
2018-10-16T22:48:59.301Z,30.14
2018-10-16T22:51:35.271Z,30.13
2018-10-16T22:54:11.247Z,30.14
2018-10-16T22:56:48.056Z,30.13
2018-10-16T22:59:24.088Z,30.13
2018-10-16T23:02:00.525Z,30.14
2018-10-16T23:04:36.540Z,30.15
2018-10-16T23:07:12.928Z,30.15
2018-10-16T23:09:49.399Z,30.15
2018-10-16T23:12:25.181Z,30.15
2018-10-16T23:15:01.429Z,30.15
2018-10-16T23:17:37.540Z,30.15
2018-10-16T23:20:14.894Z,30.16
2018-10-16T23:22:51.079Z,30.16
2018-10-16T23:25:27.261Z,30.16
2018-10-16T23:28:03.432Z,30.16
2018-10-16T23:30:39.864Z,30.16
2018-10-16T23:33:16.273Z,30.16
2018-10-16T23:35:52.449Z,30.15
2018-10-16T23:38:28.457Z,30.16
2018-10-16T23:41:04.722Z,30.16
2018-10-16T23:43:39.278Z,30.15
2018-10-16T23:46:15.502Z,30.16
2018-10-16T23:48:51.887Z,30.16
2018-10-16T23:51:28.263Z,30.15
2018-10-16T23:54:04.304Z,30.17
2018-10-16T23:56:40.907Z,30.17
2018-10-16T23:59:16.906Z,30.17
